createdAt,value
2023-12-30T00:01:48.960Z,5.10
2023-12-30T00:04:15.735Z,5.10
2023-12-30T00:06:42.539Z,5.10
2023-12-30T00:09:09.578Z,5.20
2023-12-30T00:11:36.344Z,5.20
2023-12-30T00:14:03.075Z,5.20
2023-12-30T00:16:30.145Z,5.20
2023-12-30T00:18:57.656Z,5.20
2023-12-30T00:21:24.523Z,5.20
2023-12-30T00:23:51.544Z,5.20
2023-12-30T00:26:24.880Z,5.20
2023-12-30T00:28:52.185Z,5.20
2023-12-30T00:31:25.572Z,5.30
2023-12-30T00:33:53.461Z,5.30
2023-12-30T00:36:20.324Z,5.30
2023-12-30T00:38:47.028Z,5.30
2023-12-30T00:41:14.368Z,5.30
2023-12-30T00:43:44.279Z,5.30
2023-12-30T00:46:11.212Z,5.30
2023-12-30T00:48:37.968Z,5.30
2023-12-30T00:51:04.736Z,5.20
2023-12-30T00:53:31.487Z,5.20
2023-12-30T00:55:58.212Z,5.10
2023-12-30T00:58:25.273Z,5.10
2023-12-30T01:00:52.580Z,5.10
2023-12-30T01:03:19.434Z,5.10
2023-12-30T01:05:46.263Z,5.00
2023-12-30T01:08:13.064Z,5.00
2023-12-30T01:10:39.898Z,5.00
2023-12-30T01:13:06.889Z,5.00
2023-12-30T01:15:34.312Z,5.00
2023-12-30T01:18:01.185Z,5.00
2023-12-30T01:20:28.118Z,5.10
2023-12-30T01:22:54.936Z,5.10
2023-12-30T01:25:21.711Z,5.10
2023-12-30T01:27:48.493Z,5.20
2023-12-30T01:30:15.393Z,5.10
2023-12-30T01:36:13.826Z,5.20
2023-12-30T01:38:42.709Z,5.20
2023-12-30T01:41:09.747Z,5.20
2023-12-30T01:43:38.283Z,5.20
2023-12-30T01:46:05.935Z,5.10
2023-12-30T01:48:33.166Z,5.10
2023-12-30T01:51:01.480Z,5.20
2023-12-30T01:53:29.356Z,5.10
2023-12-30T01:55:57.030Z,5.20
2023-12-30T01:58:23.860Z,5.20
2023-12-30T02:00:53.097Z,5.10
2023-12-30T02:03:20.061Z,5.10
2023-12-30T02:05:48.692Z,5.10
2023-12-30T02:08:16.052Z,5.00
2023-12-30T02:10:42.837Z,5.00
2023-12-30T02:13:09.889Z,5.00
2023-12-30T02:15:36.957Z,4.90
2023-12-30T02:18:04.173Z,4.80
2023-12-30T02:20:31.481Z,4.80
2023-12-30T02:22:58.230Z,4.80
2023-12-30T02:25:25.069Z,4.80
2023-12-30T02:27:51.822Z,4.70
2023-12-30T02:30:18.648Z,4.70
2023-12-30T02:32:45.397Z,4.70
2023-12-30T02:35:12.125Z,4.70
2023-12-30T02:37:38.875Z,4.80
2023-12-30T02:40:06.057Z,4.90
2023-12-30T02:42:32.975Z,4.90
2023-12-30T02:44:59.766Z,4.90
2023-12-30T02:47:26.503Z,4.90
2023-12-30T02:49:53.289Z,4.90
2023-12-30T02:52:20.071Z,4.80
2023-12-30T02:54:46.825Z,4.80
2023-12-30T02:57:13.601Z,4.80
2023-12-30T02:59:40.283Z,4.80
2023-12-30T03:02:07.235Z,4.80
2023-12-30T03:04:34.037Z,4.90
2023-12-30T03:07:00.897Z,4.90
2023-12-30T03:09:27.633Z,4.90
2023-12-30T03:11:54.787Z,4.90
2023-12-30T03:14:21.544Z,5.00
2023-12-30T03:16:48.274Z,5.00
2023-12-30T03:19:15.029Z,5.10
2023-12-30T03:21:41.779Z,5.10
2023-12-30T03:24:08.537Z,5.20
2023-12-30T03:26:35.277Z,5.20
2023-12-30T03:29:02.005Z,5.20
2023-12-30T03:31:29.178Z,5.20
2023-12-30T03:33:56.510Z,5.20
2023-12-30T03:36:23.378Z,5.20
2023-12-30T03:38:50.713Z,5.20
2023-12-30T03:41:17.906Z,5.20
2023-12-30T03:43:44.955Z,5.20
2023-12-30T03:46:11.980Z,5.20
2023-12-30T03:48:38.964Z,5.20
2023-12-30T03:51:07.057Z,5.20
2023-12-30T03:53:34.151Z,5.20
2023-12-30T03:56:01.151Z,5.20
2023-12-30T03:58:27.957Z,5.20
2023-12-30T04:00:54.915Z,5.20
2023-12-30T04:03:21.752Z,5.20
2023-12-30T04:05:48.504Z,5.30
2023-12-30T04:08:15.294Z,5.30
2023-12-30T04:10:42.093Z,5.30
2023-12-30T04:13:10.751Z,5.20
2023-12-30T04:15:38.245Z,5.20
2023-12-30T04:18:05.785Z,5.10
2023-12-30T04:20:32.791Z,5.10
2023-12-30T04:22:59.801Z,5.10
2023-12-30T04:25:26.875Z,5.20
2023-12-30T04:27:53.761Z,5.20
2023-12-30T04:30:20.637Z,5.20
2023-12-30T04:32:48.212Z,5.20
2023-12-30T04:35:15.039Z,5.30
2023-12-30T04:37:41.880Z,5.30
2023-12-30T04:40:08.864Z,5.30
2023-12-30T04:42:35.683Z,5.30
2023-12-30T04:45:02.438Z,5.30
2023-12-30T04:47:29.213Z,5.30
2023-12-30T04:49:56.066Z,5.20
2023-12-30T04:52:22.848Z,5.20
2023-12-30T04:54:50.238Z,5.10
2023-12-30T04:57:17.013Z,5.00
2023-12-30T04:59:43.792Z,4.90
2023-12-30T05:02:10.529Z,4.80
2023-12-30T05:04:37.256Z,4.80
2023-12-30T05:07:04.135Z,4.70
2023-12-30T05:09:30.832Z,4.60
2023-12-30T05:11:57.546Z,4.60
2023-12-30T05:14:24.288Z,4.60
2023-12-30T05:16:51.120Z,4.50
2023-12-30T05:19:18.003Z,4.50
2023-12-30T05:21:44.862Z,4.50
2023-12-30T05:24:11.599Z,4.50
2023-12-30T05:26:38.436Z,4.50
2023-12-30T05:29:05.317Z,4.50
2023-12-30T05:31:32.083Z,4.50
2023-12-30T05:33:58.912Z,4.50
2023-12-30T05:36:25.661Z,4.50
2023-12-30T05:38:52.413Z,4.40
2023-12-30T05:41:19.117Z,4.40
2023-12-30T05:43:46.145Z,4.40
2023-12-30T05:46:17.187Z,4.40
2023-12-30T05:48:44.370Z,4.40
2023-12-30T05:51:11.275Z,4.50
2023-12-30T05:53:38.233Z,4.50
2023-12-30T05:56:05.119Z,4.50
2023-12-30T05:58:32.053Z,4.50
2023-12-30T06:00:58.925Z,4.50
2023-12-30T06:03:25.678Z,4.50
2023-12-30T06:05:52.467Z,4.60
2023-12-30T06:08:19.196Z,4.60
2023-12-30T06:10:50.666Z,4.60
2023-12-30T06:13:17.561Z,4.60
2023-12-30T06:15:48.382Z,4.60
2023-12-30T06:18:15.173Z,4.60
2023-12-30T06:20:43.912Z,4.70
2023-12-30T06:23:10.654Z,4.70
2023-12-30T06:25:38.971Z,4.70
2023-12-30T06:28:06.101Z,4.80
2023-12-30T06:30:32.922Z,4.80
2023-12-30T06:33:03.000Z,4.80
2023-12-30T06:35:29.854Z,4.80
2023-12-30T06:37:56.744Z,4.80
2023-12-30T06:40:23.502Z,4.80
2023-12-30T06:42:50.265Z,4.80
2023-12-30T06:45:16.985Z,4.90
2023-12-30T06:47:43.813Z,4.90
2023-12-30T06:50:12.748Z,4.90
2023-12-30T06:52:39.493Z,4.90
2023-12-30T06:55:17.998Z,4.90
2023-12-30T06:57:47.849Z,4.90
2023-12-30T07:00:14.720Z,4.90
2023-12-30T07:02:42.915Z,4.90
2023-12-30T07:05:46.737Z,4.90
2023-12-30T07:08:13.874Z,4.90
2023-12-30T07:10:40.689Z,5.00
2023-12-30T07:13:07.943Z,4.90
2023-12-30T07:15:34.829Z,4.90
2023-12-30T07:18:03.142Z,4.90
2023-12-30T07:20:29.982Z,4.90
2023-12-30T07:22:57.081Z,4.90
2023-12-30T07:25:47.220Z,4.90
2023-12-30T07:28:14.570Z,4.90
2023-12-30T07:30:41.387Z,4.80
2023-12-30T07:33:08.359Z,4.80
2023-12-30T07:35:35.179Z,4.80
2023-12-30T07:38:01.930Z,4.80
2023-12-30T07:40:28.634Z,4.80
2023-12-30T07:42:55.508Z,4.80
2023-12-30T07:45:22.444Z,4.80
2023-12-30T07:47:49.761Z,4.80
2023-12-30T07:50:16.813Z,4.90
2023-12-30T07:52:43.587Z,4.90
2023-12-30T07:55:10.697Z,4.90
2023-12-30T07:57:37.824Z,4.90
2023-12-30T08:00:05.808Z,4.90
2023-12-30T08:02:33.120Z,4.90
2023-12-30T08:08:28.825Z,5.00
2023-12-30T08:10:55.770Z,5.00
2023-12-30T08:13:22.545Z,5.10
2023-12-30T08:15:49.352Z,5.10
2023-12-30T08:18:16.198Z,5.20
2023-12-30T08:20:43.067Z,5.20
2023-12-30T08:23:09.762Z,5.20
2023-12-30T08:25:37.331Z,5.30
2023-12-30T08:28:04.319Z,5.20
2023-12-30T08:30:31.093Z,5.30
2023-12-30T08:33:00.647Z,5.20
2023-12-30T08:35:27.463Z,5.20
2023-12-30T08:37:54.154Z,5.20
2023-12-30T08:40:20.874Z,5.20
2023-12-30T08:42:48.209Z,5.20
2023-12-30T08:45:19.436Z,5.20
2023-12-30T08:47:46.746Z,5.30
2023-12-30T08:50:13.906Z,5.30
2023-12-30T08:52:40.852Z,5.40
2023-12-30T08:55:11.536Z,5.40
2023-12-30T08:57:38.799Z,5.40
2023-12-30T09:00:09.620Z,5.40
2023-12-30T09:02:36.998Z,5.40
2023-12-30T09:05:04.163Z,5.50
2023-12-30T09:07:31.300Z,5.50
2023-12-30T09:09:58.936Z,5.50
2023-12-30T09:12:25.800Z,5.60
2023-12-30T09:14:52.499Z,5.60
2023-12-30T09:17:19.308Z,5.60
2023-12-30T09:19:46.252Z,5.60
2023-12-30T09:22:13.620Z,5.60
2023-12-30T09:24:40.454Z,5.60
2023-12-30T09:27:08.991Z,5.60
2023-12-30T09:29:36.055Z,5.60
2023-12-30T09:32:02.805Z,5.60
2023-12-30T09:34:38.866Z,5.60
2023-12-30T09:37:10.860Z,5.60
2023-12-30T09:39:37.622Z,5.60
2023-12-30T09:42:04.458Z,5.70
2023-12-30T09:44:33.020Z,5.80
2023-12-30T09:47:00.813Z,5.80
2023-12-30T09:49:30.100Z,5.90
2023-12-30T09:51:57.975Z,5.90
2023-12-30T09:54:38.257Z,5.90
2023-12-30T09:57:10.314Z,5.90
2023-12-30T09:59:39.008Z,5.80
2023-12-30T10:02:08.126Z,5.80
2023-12-30T10:04:35.125Z,5.80
2023-12-30T10:07:03.008Z,5.80
2023-12-30T10:09:31.131Z,5.70
2023-12-30T10:11:57.969Z,5.70
2023-12-30T10:14:24.696Z,5.70
2023-12-30T10:16:51.443Z,5.70
2023-12-30T10:19:18.260Z,5.60
2023-12-30T10:21:47.093Z,5.50
2023-12-30T10:24:15.769Z,5.50
2023-12-30T10:26:43.916Z,5.40
2023-12-30T10:29:11.666Z,5.40
2023-12-30T10:31:38.910Z,5.40
2023-12-30T10:34:07.298Z,5.40
2023-12-30T10:36:34.560Z,5.40
2023-12-30T10:39:04.517Z,5.40
2023-12-30T10:41:31.346Z,5.40
2023-12-30T10:43:58.101Z,5.40
2023-12-30T10:46:26.799Z,5.30
2023-12-30T10:48:54.666Z,5.30
2023-12-30T10:51:26.095Z,5.20
2023-12-30T10:53:59.912Z,5.20
2023-12-30T10:56:30.107Z,5.10
2023-12-30T10:58:59.623Z,5.10
2023-12-30T11:01:26.472Z,5.10
2023-12-30T11:03:53.982Z,5.00
2023-12-30T11:06:34.100Z,5.00
2023-12-30T11:09:07.370Z,5.00
2023-12-30T11:11:34.122Z,5.00
2023-12-30T11:14:00.833Z,4.90
2023-12-30T11:16:33.692Z,4.90
2023-12-30T11:19:04.658Z,4.90
2023-12-30T11:21:37.052Z,4.90
2023-12-30T11:24:05.067Z,5.00
2023-12-30T11:26:32.638Z,5.00
2023-12-30T11:29:00.950Z,5.10
2023-12-30T11:31:35.578Z,5.10
2023-12-30T11:34:03.062Z,5.10
2023-12-30T11:36:29.978Z,5.20
2023-12-30T11:38:58.589Z,5.30
2023-12-30T11:41:26.319Z,5.30
2023-12-30T11:43:54.694Z,5.50
2023-12-30T11:46:21.535Z,5.70
2023-12-30T11:48:48.400Z,5.70
2023-12-30T11:51:22.166Z,5.70
2023-12-30T11:53:49.092Z,5.70
2023-12-30T11:56:16.970Z,5.60
2023-12-30T11:58:44.081Z,5.50
2023-12-30T12:01:11.111Z,5.50
2023-12-30T12:03:38.017Z,5.40
2023-12-30T12:06:04.873Z,5.40
2023-12-30T12:08:31.578Z,5.40
2023-12-30T12:10:58.412Z,5.50
2023-12-30T12:13:25.550Z,5.50
2023-12-30T12:15:53.019Z,5.50
2023-12-30T12:18:20.324Z,5.50
2023-12-30T12:20:47.194Z,5.50
2023-12-30T12:23:14.493Z,5.50
2023-12-30T12:25:43.607Z,5.50
2023-12-30T12:28:14.278Z,5.40
2023-12-30T12:30:41.242Z,5.40
2023-12-30T12:33:08.762Z,5.40
2023-12-30T12:35:36.242Z,5.50
2023-12-30T12:38:03.220Z,5.70
2023-12-30T12:40:30.021Z,5.80
2023-12-30T12:42:56.956Z,5.80
2023-12-30T12:45:24.555Z,5.80
2023-12-30T12:47:51.561Z,5.70
2023-12-30T12:50:20.322Z,5.70
2023-12-30T12:52:47.058Z,5.70
2023-12-30T12:55:13.976Z,5.60
2023-12-30T12:57:43.306Z,5.50
2023-12-30T13:00:10.407Z,5.50
2023-12-30T13:02:38.243Z,5.40
2023-12-30T13:05:10.925Z,5.40
2023-12-30T13:07:39.852Z,5.40
2023-12-30T13:10:22.662Z,5.40
2023-12-30T13:12:49.672Z,5.40
2023-12-30T13:15:20.438Z,5.50
2023-12-30T13:17:47.294Z,5.60
2023-12-30T13:20:18.266Z,5.70
2023-12-30T13:22:45.618Z,6.00
2023-12-30T13:25:13.295Z,6.20
2023-12-30T13:27:40.262Z,6.30
2023-12-30T13:30:07.758Z,6.30
2023-12-30T13:32:36.309Z,6.40
2023-12-30T13:35:03.524Z,6.40
2023-12-30T13:37:32.049Z,6.50
2023-12-30T13:40:02.429Z,6.40
2023-12-30T13:42:29.291Z,6.30
2023-12-30T13:44:58.855Z,6.10
2023-12-30T13:47:40.868Z,6.00
2023-12-30T13:50:20.243Z,6.10
2023-12-30T13:52:51.661Z,6.10
2023-12-30T13:55:19.963Z,5.90
2023-12-30T13:57:52.784Z,5.80
2023-12-30T14:00:20.406Z,5.70
2023-12-30T14:02:53.130Z,5.60
2023-12-30T14:05:34.292Z,5.50
2023-12-30T14:08:18.978Z,5.40
2023-12-30T14:10:50.212Z,5.30
2023-12-30T14:13:18.697Z,5.20
2023-12-30T14:15:49.110Z,5.20
2023-12-30T14:18:16.914Z,5.10
2023-12-30T14:20:44.230Z,5.10
2023-12-30T14:23:11.486Z,5.00
2023-12-30T14:25:39.705Z,5.00
2023-12-30T14:28:06.830Z,4.90
2023-12-30T14:30:34.425Z,4.90
2023-12-30T14:33:01.817Z,4.80
2023-12-30T14:35:29.226Z,4.80
2023-12-30T14:37:55.963Z,4.70
2023-12-30T14:40:23.521Z,4.70
2023-12-30T14:42:51.973Z,4.60
2023-12-30T14:45:20.527Z,4.60
2023-12-30T14:47:47.822Z,4.50
2023-12-30T14:50:14.850Z,4.50
2023-12-30T14:52:42.006Z,4.50
2023-12-30T14:57:46.850Z,4.50
2023-12-30T15:00:15.133Z,4.50
2023-12-30T15:02:42.892Z,4.50
2023-12-30T15:05:16.373Z,4.50
2023-12-30T15:07:44.588Z,4.40
2023-12-30T15:10:14.477Z,4.40
2023-12-30T15:12:42.514Z,4.40
2023-12-30T15:15:09.561Z,4.30
2023-12-30T15:17:36.573Z,4.30
2023-12-30T15:20:04.909Z,4.20
2023-12-30T15:22:32.235Z,4.20
2023-12-30T15:24:59.674Z,4.20
2023-12-30T15:27:26.729Z,4.10
2023-12-30T15:29:53.579Z,4.10
2023-12-30T15:32:21.087Z,4.10
2023-12-30T15:34:48.136Z,4.00
2023-12-30T15:37:15.106Z,4.00
2023-12-30T15:39:41.902Z,4.10
2023-12-30T15:42:08.833Z,4.10
2023-12-30T15:44:38.153Z,4.20
2023-12-30T15:47:11.298Z,4.20
2023-12-30T15:49:42.362Z,4.20
2023-12-30T15:52:10.799Z,4.20
2023-12-30T15:54:38.472Z,4.30
2023-12-30T15:57:05.553Z,4.30
2023-12-30T15:59:32.248Z,4.30
2023-12-30T16:01:58.998Z,4.30
2023-12-30T16:04:25.740Z,4.30
2023-12-30T16:06:52.692Z,4.20
2023-12-30T16:09:20.201Z,4.20
2023-12-30T16:11:46.985Z,4.20
2023-12-30T16:14:13.842Z,4.20
2023-12-30T16:16:45.365Z,4.20
2023-12-30T16:19:13.097Z,4.20
2023-12-30T16:21:40.254Z,4.30
2023-12-30T16:24:07.303Z,4.40
2023-12-30T16:26:34.216Z,4.50
2023-12-30T16:29:02.289Z,4.50
2023-12-30T16:31:29.021Z,4.50
2023-12-30T16:33:55.821Z,4.60
2023-12-30T16:36:22.614Z,4.60
2023-12-30T16:38:49.425Z,4.60
2023-12-30T16:41:16.170Z,4.60
2023-12-30T16:43:42.975Z,4.50
2023-12-30T16:46:10.101Z,4.50
2023-12-30T16:48:37.193Z,4.50
2023-12-30T16:51:04.037Z,4.50
2023-12-30T16:53:30.802Z,4.50
2023-12-30T16:55:59.383Z,4.50
2023-12-30T16:58:27.048Z,4.40
2023-12-30T17:03:25.387Z,4.40
2023-12-30T17:05:52.531Z,4.40
2023-12-30T17:08:19.349Z,4.40
2023-12-30T17:10:46.173Z,4.50
2023-12-30T17:13:13.367Z,4.50
2023-12-30T17:15:40.800Z,4.50
2023-12-30T17:18:07.743Z,4.50
2023-12-30T17:20:35.479Z,4.60
2023-12-30T17:23:02.662Z,4.60
2023-12-30T17:25:29.571Z,4.50
2023-12-30T17:27:56.377Z,4.50
2023-12-30T17:30:24.404Z,4.50
2023-12-30T17:32:52.395Z,4.50
2023-12-30T17:35:20.125Z,4.40
2023-12-30T17:37:46.896Z,4.30
2023-12-30T17:40:18.554Z,4.20
2023-12-30T17:42:45.529Z,4.20
2023-12-30T17:45:12.556Z,4.20
2023-12-30T17:47:39.869Z,4.10
2023-12-30T17:50:08.613Z,4.10
2023-12-30T17:52:36.073Z,4.10
2023-12-30T17:55:03.814Z,4.10
2023-12-30T17:57:30.560Z,4.10
2023-12-30T17:59:57.286Z,4.10
2023-12-30T18:02:24.094Z,4.10
2023-12-30T18:04:51.052Z,4.10
2023-12-30T18:07:17.967Z,4.10
2023-12-30T18:09:47.798Z,4.10
2023-12-30T18:12:15.078Z,4.10
2023-12-30T18:14:41.938Z,4.00
2023-12-30T18:17:08.788Z,4.00
2023-12-30T18:19:35.795Z,3.90
2023-12-30T18:22:02.922Z,3.90
2023-12-30T18:24:30.020Z,3.80
2023-12-30T18:26:56.948Z,3.70
2023-12-30T18:29:23.835Z,3.70
2023-12-30T18:31:51.757Z,3.60
2023-12-30T18:34:18.643Z,3.60
2023-12-30T18:36:46.805Z,3.50
2023-12-30T18:39:13.654Z,3.40
2023-12-30T18:41:40.396Z,3.40
2023-12-30T18:44:07.537Z,3.40
2023-12-30T18:46:35.185Z,3.30
2023-12-30T18:49:02.298Z,3.20
2023-12-30T18:51:29.145Z,3.20
2023-12-30T18:53:56.518Z,3.10
2023-12-30T18:56:23.407Z,3.10
2023-12-30T18:58:50.901Z,3.00
2023-12-30T19:01:17.971Z,2.90
2023-12-30T19:03:44.759Z,2.90
2023-12-30T19:06:11.573Z,2.90
2023-12-30T19:08:39.495Z,2.90
2023-12-30T19:11:07.061Z,2.90
2023-12-30T19:13:35.154Z,2.80
2023-12-30T19:16:02.059Z,2.80
2023-12-30T19:18:28.925Z,2.80
2023-12-30T19:20:56.799Z,2.80
2023-12-30T19:23:23.758Z,2.80
2023-12-30T19:25:50.750Z,2.70
2023-12-30T19:28:17.548Z,2.70
2023-12-30T19:30:44.385Z,2.60
2023-12-30T19:33:13.372Z,2.60
2023-12-30T19:35:42.171Z,2.50
2023-12-30T19:38:09.316Z,2.40
2023-12-30T19:40:36.280Z,2.40
2023-12-30T19:43:04.933Z,2.30
2023-12-30T19:45:31.928Z,2.30
2023-12-30T19:48:00.155Z,2.30
2023-12-30T19:50:27.611Z,2.20
2023-12-30T19:52:54.479Z,2.20
2023-12-30T19:55:21.422Z,2.10
2023-12-30T19:57:48.248Z,2.10
2023-12-30T20:00:15.125Z,2.00
2023-12-30T20:02:42.963Z,2.00
2023-12-30T20:05:13.811Z,2.00
2023-12-30T20:07:41.442Z,2.00
2023-12-30T20:10:10.516Z,1.90
2023-12-30T20:12:37.397Z,1.90
2023-12-30T20:15:08.442Z,1.90
2023-12-30T20:17:36.729Z,1.90
2023-12-30T20:20:06.905Z,1.90
2023-12-30T20:22:34.194Z,1.90
2023-12-30T20:25:01.048Z,1.90
2023-12-30T20:27:28.225Z,1.90
2023-12-30T20:29:55.042Z,1.90
2023-12-30T20:32:22.880Z,1.90
2023-12-30T20:34:49.950Z,1.80
2023-12-30T20:37:19.765Z,1.80
2023-12-30T20:39:47.224Z,1.80
2023-12-30T20:42:14.792Z,1.80
2023-12-30T20:44:41.506Z,1.90
2023-12-30T20:47:11.279Z,1.90
2023-12-30T20:49:40.040Z,2.00
2023-12-30T20:52:06.916Z,2.10
2023-12-30T20:54:33.824Z,2.10
2023-12-30T20:57:00.560Z,2.20
2023-12-30T20:59:27.267Z,2.30
2023-12-30T21:01:54.063Z,2.30
2023-12-30T21:04:20.995Z,2.30
2023-12-30T21:06:47.931Z,2.40
2023-12-30T21:09:15.716Z,2.40
2023-12-30T21:11:43.144Z,2.50
2023-12-30T21:14:09.941Z,2.50
2023-12-30T21:16:37.080Z,2.60
2023-12-30T21:19:04.119Z,2.70
2023-12-30T21:21:30.855Z,2.70
2023-12-30T21:23:57.650Z,2.80
2023-12-30T21:26:24.658Z,2.80
2023-12-30T21:28:51.511Z,2.90
2023-12-30T21:31:18.402Z,3.00
2023-12-30T21:33:45.301Z,3.10
2023-12-30T21:36:15.191Z,3.10
2023-12-30T21:38:43.926Z,3.20
2023-12-30T21:41:13.381Z,3.20
2023-12-30T21:43:40.447Z,3.20
2023-12-30T21:46:07.201Z,3.30
2023-12-30T21:48:34.256Z,3.30
2023-12-30T21:51:01.692Z,3.40
2023-12-30T21:53:28.446Z,3.40
2023-12-30T21:55:55.199Z,3.50
2023-12-30T21:58:21.946Z,3.50
2023-12-30T22:00:49.950Z,3.60
2023-12-30T22:03:16.815Z,3.60
2023-12-30T22:05:44.232Z,3.60
2023-12-30T22:08:11.033Z,3.70
2023-12-30T22:10:37.783Z,3.70
2023-12-30T22:13:04.773Z,3.80
2023-12-30T22:15:31.635Z,3.80
2023-12-30T22:17:58.369Z,3.90
2023-12-30T22:20:25.121Z,3.90
2023-12-30T22:22:51.969Z,3.90
2023-12-30T22:25:18.767Z,3.90
2023-12-30T22:27:46.046Z,4.00
2023-12-30T22:30:13.282Z,4.00
2023-12-30T22:32:41.627Z,4.00
2023-12-30T22:35:17.453Z,4.00
2023-12-30T22:37:44.320Z,4.10
2023-12-30T22:40:11.539Z,4.10
2023-12-30T22:42:40.983Z,4.10
2023-12-30T22:45:08.204Z,4.20
2023-12-30T22:47:36.155Z,4.20
2023-12-30T22:50:06.100Z,4.20
2023-12-30T22:52:33.525Z,4.20
2023-12-30T22:55:00.669Z,4.30
2023-12-30T22:57:28.866Z,4.30
2023-12-30T22:59:55.792Z,4.30
2023-12-30T23:02:22.710Z,4.30
2023-12-30T23:04:50.901Z,4.30
2023-12-30T23:07:17.875Z,4.40
2023-12-30T23:09:48.069Z,4.40
2023-12-30T23:12:14.915Z,4.40
2023-12-30T23:14:41.652Z,4.40
2023-12-30T23:17:13.177Z,4.40
2023-12-30T23:19:40.427Z,4.40
2023-12-30T23:22:07.303Z,4.40
2023-12-30T23:24:34.122Z,4.40
2023-12-30T23:27:00.857Z,4.40
2023-12-30T23:29:28.110Z,4.40
2023-12-30T23:31:54.898Z,4.40
2023-12-30T23:34:21.723Z,4.40
2023-12-30T23:36:48.612Z,4.50
2023-12-30T23:39:15.370Z,4.40
2023-12-30T23:41:42.071Z,4.40
2023-12-30T23:44:08.807Z,4.40
2023-12-30T23:46:35.682Z,4.40
2023-12-30T23:49:02.976Z,4.40
2023-12-30T23:51:30.034Z,4.40
2023-12-30T23:53:56.758Z,4.40
2023-12-30T23:56:23.602Z,4.40
2023-12-30T23:58:50.344Z,4.40
